Time;durP1;ratioP1;P1;durP2;ratioP2;P2;SDS_P1;SDS_P2;PMS_P1;PMS_P2;Temp;Humidity;BMP_temperature;BMP_pressure;BME280_temperature;BME280_humidity;BME280_pressure;Samples;Min_cycle;Max_cycle;Signal;HPM_P1;HPM_P2
2023/09/13 00:02:19;;;;;;;28.75;23.27;;;19.10;99.90;;;;;;5055909;28;20175;-51
2023/09/13 00:04:44;;;;;;;28.58;22.92;;;19.10;99.90;;;;;;5055606;28;20258;-52
2023/09/13 00:07:10;;;;;;;27.83;23.80;;;19.10;99.90;;;;;;5055458;28;20636;-49
2023/09/13 00:09:40;;;;;;;28.48;23.48;;;19.10;99.90;;;;;;5055821;28;20670;-50
2023/09/13 00:12:10;;;;;;;28.30;24.23;;;19.00;99.90;;;;;;5055675;28;20234;-47
2023/09/13 00:14:36;;;;;;;27.73;23.65;;;19.00;99.90;;;;;;5055463;28;20167;-49
2023/09/13 00:17:02;;;;;;;28.88;23.30;;;19.00;99.90;;;;;;5055410;28;20171;-47
2023/09/13 00:19:28;;;;;;;27.17;21.45;;;19.10;99.90;;;;;;5055183;28;20231;-51
2023/09/13 00:21:53;;;;;;;27.80;22.25;;;19.00;99.90;;;;;;5055386;28;20223;-49
2023/09/13 00:24:19;;;;;;;26.05;22.05;;;19.10;99.90;;;;;;5055408;28;20203;-52
2023/09/13 00:26:45;;;;;;;29.92;22.95;;;19.00;99.90;;;;;;5055177;28;20249;-49
2023/09/13 00:29:10;;;;;;;32.60;23.70;;;19.00;99.90;;;;;;5055190;28;20258;-50
2023/09/13 00:31:36;;;;;;;28.10;20.38;;;19.00;99.90;;;;;;5055074;28;20178;-49
2023/09/13 00:34:02;;;;;;;28.73;22.10;;;19.00;99.90;;;;;;5054813;28;20186;-50
2023/09/13 00:36:27;;;;;;;28.23;22.73;;;18.90;99.90;;;;;;5055247;28;20207;-50
2023/09/13 00:38:53;;;;;;;28.48;20.80;;;19.00;99.90;;;;;;5055244;28;20171;-47
2023/09/13 00:41:19;;;;;;;28.20;21.20;;;18.90;99.90;;;;;;5055023;28;20247;-52
2023/09/13 00:43:45;;;;;;;29.92;21.25;;;19.00;99.90;;;;;;5055063;28;20206;-47
2023/09/13 00:46:11;;;;;;;27.75;20.75;;;19.00;99.90;;;;;;5054954;28;20175;-49
2023/09/13 00:48:37;;;;;;;26.40;21.23;;;19.00;99.90;;;;;;5054666;28;20189;-49
2023/09/13 00:51:03;;;;;;;29.83;22.75;;;19.00;99.90;;;;;;5054834;28;20179;-50
2023/09/13 00:53:31;;;;;;;31.10;21.33;;;18.90;99.90;;;;;;5054854;28;20179;-49
2023/09/13 00:55:57;;;;;;;27.98;21.38;;;18.90;99.90;;;;;;5054879;28;20172;-50
2023/09/13 00:58:24;;;;;;;31.67;22.45;;;19.00;99.90;;;;;;5054721;28;20194;-48
2023/09/13 01:00:55;;;;;;;30.30;22.65;;;18.90;99.90;;;;;;5053235;28;20211;-48
2023/09/13 01:03:21;;;;;;;30.90;23.10;;;18.90;99.90;;;;;;5054529;28;20628;-49
2023/09/13 01:05:52;;;;;;;26.92;22.38;;;18.80;99.90;;;;;;5054593;28;20175;-51
2023/09/13 01:08:19;;;;;;;28.38;23.10;;;18.80;99.90;;;;;;5054786;28;20201;-50
2023/09/13 01:10:45;;;;;;;25.88;21.20;;;18.70;99.90;;;;;;5054470;28;20179;-49
2023/09/13 01:13:11;;;;;;;29.88;22.17;;;18.70;99.90;;;;;;5054232;28;20528;-46
2023/09/13 01:15:44;;;;;;;30.25;22.75;;;18.70;99.90;;;;;;5053940;28;20177;-49
2023/09/13 01:18:19;;;;;;;28.75;20.13;;;18.60;99.90;;;;;;5054162;28;20517;-50
2023/09/13 01:21:10;;;;;;;28.75;21.30;;;18.70;99.90;;;;;;5054109;28;20229;-50
2023/09/13 01:24:01;;;;;;;26.02;21.17;;;18.70;99.90;;;;;;5054354;28;20172;-50
2023/09/13 01:27:00;;;;;;;33.10;22.30;;;18.70;99.90;;;;;;5054493;28;20179;-46
2023/09/13 01:29:27;;;;;;;26.75;21.05;;;18.60;99.90;;;;;;5054307;28;20172;-49
2023/09/13 01:31:53;;;;;;;27.48;21.60;;;18.60;99.90;;;;;;5054164;28;20237;-49
2023/09/13 01:34:19;;;;;;;30.45;22.23;;;18.50;99.90;;;;;;5053846;28;20178;-50
2023/09/13 01:36:44;;;;;;;32.45;22.50;;;18.50;99.90;;;;;;5053760;28;20179;-47
2023/09/13 01:39:10;;;;;;;28.90;21.48;;;18.40;99.90;;;;;;5054004;28;20206;-50
2023/09/13 01:41:54;;;;;;;28.17;20.83;;;18.40;99.90;;;;;;5054074;28;20207;-50
2023/09/13 01:44:20;;;;;;;28.67;21.25;;;18.40;99.90;;;;;;5053918;28;20167;-47
2023/09/13 01:46:46;;;;;;;30.05;21.08;;;18.40;99.90;;;;;;5053182;28;20168;-50
2023/09/13 01:49:15;;;;;;;25.88;19.92;;;18.40;99.90;;;;;;5053538;28;20186;-48
2023/09/13 01:51:41;;;;;;;30.33;20.95;;;18.50;99.90;;;;;;5053839;28;20182;-50
2023/09/13 01:54:07;;;;;;;31.90;23.23;;;18.40;99.90;;;;;;5053768;28;20172;-49
2023/09/13 01:56:32;;;;;;;33.50;24.45;;;18.50;99.90;;;;;;5053686;28;20743;-51
2023/09/13 01:58:58;;;;;;;33.05;24.02;;;18.50;99.90;;;;;;5053437;28;20575;-50
2023/09/13 02:01:24;;;;;;;37.05;25.55;;;18.60;99.90;;;;;;5053461;28;20207;-50
2023/09/13 02:03:49;;;;;;;40.75;26.15;;;18.60;99.90;;;;;;5053452;28;20205;-50
2023/09/13 02:06:15;;;;;;;38.88;27.23;;;18.70;99.90;;;;;;5053613;28;20214;-48
2023/09/13 02:08:42;;;;;;;53.55;28.30;;;18.70;99.90;;;;;;5053610;28;20179;-51
2023/09/13 02:11:08;;;;;;;38.58;24.98;;;18.70;99.90;;;;;;5053471;28;20583;-49
2023/09/13 02:13:34;;;;;;;37.80;25.55;;;18.70;99.90;;;;;;5053388;28;20179;-50
2023/09/13 02:16:00;;;;;;;37.88;25.75;;;18.80;99.90;;;;;;5053305;28;20198;-52
2023/09/13 02:18:26;;;;;;;38.55;27.17;;;18.80;99.90;;;;;;5053192;28;20183;-47
2023/09/13 02:20:52;;;;;;;37.78;25.90;;;18.70;99.90;;;;;;5053463;28;20230;-48
2023/09/13 02:23:17;;;;;;;33.75;25.15;;;18.80;99.90;;;;;;5053384;28;20716;-51
2023/09/13 02:25:46;;;;;;;37.83;26.67;;;18.80;99.90;;;;;;5053095;28;20529;-49
2023/09/13 02:28:12;;;;;;;39.33;27.20;;;18.80;99.90;;;;;;5053231;28;20175;-48
2023/09/13 02:30:38;;;;;;;37.85;26.80;;;18.80;99.90;;;;;;5053281;28;20202;-49
2023/09/13 02:33:05;;;;;;;50.00;28.08;;;18.80;99.90;;;;;;5053001;28;20229;-50
2023/09/13 02:35:32;;;;;;;43.08;28.27;;;18.80;99.90;;;;;;5053259;28;20579;-48
2023/09/13 02:37:58;;;;;;;39.83;27.70;;;18.80;99.90;;;;;;5053196;28;20253;-48
2023/09/13 02:40:24;;;;;;;39.03;29.23;;;18.70;99.90;;;;;;5053100;28;20207;-50
2023/09/13 02:42:49;;;;;;;48.25;30.33;;;18.70;99.90;;;;;;5053210;28;20591;-51
2023/09/13 02:45:15;;;;;;;42.20;29.10;;;18.90;99.90;;;;;;5053061;28;20181;-48
2023/09/13 02:47:42;;;;;;;41.53;29.60;;;18.80;99.90;;;;;;5051701;28;20171;-49
2023/09/13 02:50:08;;;;;;;43.92;31.23;;;18.80;99.90;;;;;;5052885;28;20178;-51
2023/09/13 02:52:34;;;;;;;42.97;29.15;;;18.90;99.90;;;;;;5052874;28;20210;-52
2023/09/13 02:55:01;;;;;;;35.35;27.75;;;18.80;99.90;;;;;;5052826;28;20198;-51
2023/09/13 02:57:27;;;;;;;40.72;29.55;;;18.80;99.90;;;;;;5053996;28;20213;-46
2023/09/13 02:59:53;;;;;;;44.33;29.33;;;18.80;99.90;;;;;;5056839;28;20563;-46
2023/09/13 03:02:20;;;;;;;39.25;28.75;;;18.90;99.90;;;;;;5056578;28;20214;-46
2023/09/13 03:04:49;;;;;;;47.40;31.33;;;18.90;99.90;;;;;;5056720;28;20214;-47
2023/09/13 03:07:15;;;;;;;47.05;31.58;;;18.80;99.90;;;;;;5056836;28;20206;-50
2023/09/13 03:09:41;;;;;;;39.83;30.42;;;18.80;99.90;;;;;;5056652;28;20202;-47
2023/09/13 03:12:06;;;;;;;44.20;31.58;;;18.80;99.90;;;;;;5056663;28;20576;-47
2023/09/13 03:14:33;;;;;;;43.50;30.23;;;18.80;99.90;;;;;;5056619;28;20171;-47
2023/09/13 03:16:59;;;;;;;45.55;31.58;;;18.80;99.90;;;;;;5056588;28;20544;-50
2023/09/13 03:19:24;;;;;;;40.65;30.25;;;18.80;99.90;;;;;;5056600;28;20223;-46
2023/09/13 03:21:50;;;;;;;44.15;30.15;;;18.70;99.90;;;;;;5056579;28;20207;-47
2023/09/13 03:24:15;;;;;;;43.38;30.52;;;18.70;99.90;;;;;;5056489;28;20179;-50
2023/09/13 03:26:41;;;;;;;48.28;32.90;;;18.70;99.90;;;;;;5056357;28;20179;-50
2023/09/13 03:29:07;;;;;;;41.65;30.67;;;18.60;99.90;;;;;;5056236;28;20175;-52
2023/09/13 03:31:35;;;;;;;40.20;29.73;;;18.60;99.90;;;;;;5056115;28;20621;-48
2023/09/13 03:34:01;;;;;;;39.50;29.35;;;18.60;99.90;;;;;;5056312;28;20184;-46
2023/09/13 03:36:30;;;;;;;35.38;27.95;;;18.60;99.90;;;;;;5055240;28;20175;-47
2023/09/13 03:38:55;;;;;;;42.33;30.63;;;18.50;99.90;;;;;;5056076;28;20194;-50
2023/09/13 03:41:22;;;;;;;38.90;28.58;;;18.40;99.90;;;;;;5056081;28;20203;-46
2023/09/13 03:43:49;;;;;;;37.72;29.88;;;18.40;99.90;;;;;;5056028;28;20176;-46
2023/09/13 03:46:15;;;;;;;41.85;29.38;;;18.30;99.90;;;;;;5056216;28;20180;-48
2023/09/13 03:48:41;;;;;;;42.75;29.92;;;18.30;99.90;;;;;;5056115;28;20171;-49
2023/09/13 03:51:07;;;;;;;40.03;29.33;;;18.40;99.90;;;;;;5056042;28;20201;-46
2023/09/13 03:53:33;;;;;;;71.55;30.80;;;18.30;99.90;;;;;;5056033;28;20199;-46
2023/09/13 03:56:00;;;;;;;42.88;29.95;;;18.30;99.90;;;;;;5055871;28;20174;-51
2023/09/13 03:58:26;;;;;;;38.40;28.08;;;18.30;99.90;;;;;;5055717;28;20172;-52
2023/09/13 04:00:53;;;;;;;38.67;29.75;;;18.20;99.90;;;;;;5055575;28;20210;-46
2023/09/13 04:03:20;;;;;;;37.90;27.60;;;18.20;99.90;;;;;;5055771;28;20183;-52
2023/09/13 04:05:45;;;;;;;37.55;28.15;;;18.20;99.90;;;;;;5055734;28;20213;-47
2023/09/13 04:08:11;;;;;;;39.05;28.98;;;18.30;99.90;;;;;;5055573;28;20179;-48
2023/09/13 04:10:37;;;;;;;40.78;28.67;;;18.30;99.90;;;;;;5055109;28;20171;-50
2023/09/13 04:13:03;;;;;;;37.30;27.88;;;18.20;99.90;;;;;;5055348;28;20197;-50
2023/09/13 04:15:29;;;;;;;36.65;26.90;;;18.10;99.90;;;;;;5055669;28;20175;-48
2023/09/13 04:17:55;;;;;;;37.97;27.13;;;18.10;99.90;;;;;;5055571;28;20179;-49
2023/09/13 04:20:21;;;;;;;37.88;27.88;;;18.10;99.90;;;;;;5055098;28;20700;-48
2023/09/13 04:22:47;;;;;;;34.72;27.38;;;18.10;99.90;;;;;;5055281;28;20179;-49
2023/09/13 04:25:12;;;;;;;32.35;26.00;;;18.10;99.90;;;;;;5055294;28;20171;-50
2023/09/13 04:27:41;;;;;;;33.95;26.77;;;18.10;99.90;;;;;;5055164;28;20179;-50
2023/09/13 04:30:08;;;;;;;30.55;24.75;;;18.10;99.90;;;;;;5055361;28;20620;-46
2023/09/13 04:32:34;;;;;;;34.00;25.55;;;18.10;99.90;;;;;;5055264;28;20178;-50
2023/09/13 04:35:00;;;;;;;35.28;25.13;;;18.10;99.90;;;;;;5055187;28;20180;-47
2023/09/13 04:37:26;;;;;;;33.47;25.27;;;18.10;99.90;;;;;;5055106;28;20180;-50
2023/09/13 04:39:51;;;;;;;30.65;23.55;;;18.00;99.90;;;;;;5054930;28;20529;-47
2023/09/13 04:42:17;;;;;;;34.92;24.00;;;18.00;99.90;;;;;;5054817;28;20207;-50
2023/09/13 04:44:43;;;;;;;36.92;24.98;;;18.00;99.90;;;;;;5054872;28;20186;-49
2023/09/13 04:47:08;;;;;;;30.58;25.75;;;18.10;99.90;;;;;;5054036;28;20184;-48
2023/09/13 04:49:36;;;;;;;27.67;23.00;;;18.10;99.90;;;;;;5054087;28;20197;-53
2023/09/13 04:52:02;;;;;;;32.70;25.85;;;18.10;99.90;;;;;;5054807;28;20535;-47
2023/09/13 04:54:29;;;;;;;27.55;22.90;;;18.10;99.90;;;;;;5054676;28;20702;-48
2023/09/13 04:56:54;;;;;;;30.35;23.17;;;18.00;99.90;;;;;;5054499;28;20229;-48
2023/09/13 04:59:25;;;;;;;30.05;23.60;;;18.00;99.90;;;;;;5054774;28;20179;-49
2023/09/13 05:01:50;;;;;;;32.30;24.40;;;18.10;99.90;;;;;;5054688;28;20269;-48
2023/09/13 05:04:16;;;;;;;27.92;24.02;;;18.10;99.90;;;;;;5054880;28;20602;-52
2023/09/13 05:06:42;;;;;;;29.77;23.52;;;18.10;99.90;;;;;;5053412;28;20687;-49
2023/09/13 05:09:08;;;;;;;31.00;24.42;;;18.10;99.90;;;;;;5054328;28;20175;-50
2023/09/13 05:11:33;;;;;;;32.80;24.40;;;18.10;99.90;;;;;;5053077;28;20187;-52
2023/09/13 05:14:09;;;;;;;29.98;25.02;;;18.10;99.90;;;;;;5054480;28;20640;-47
2023/09/13 05:16:34;;;;;;;34.08;25.10;;;18.20;99.90;;;;;;5054343;28;20186;-51
2023/09/13 05:19:00;;;;;;;29.30;24.00;;;18.10;99.90;;;;;;5054064;28;20172;-49
2023/09/13 05:21:26;;;;;;;31.63;23.95;;;18.10;99.90;;;;;;5053275;28;20207;-50
2023/09/13 05:23:51;;;;;;;33.78;26.40;;;18.20;99.90;;;;;;5054279;28;20213;-51
2023/09/13 05:26:17;;;;;;;33.72;26.08;;;18.20;99.90;;;;;;5053921;28;20198;-51
2023/09/13 05:28:42;;;;;;;30.45;25.30;;;18.10;99.90;;;;;;5054099;28;20179;-50
2023/09/13 05:31:08;;;;;;;31.95;25.63;;;18.20;99.90;;;;;;5054673;28;20179;-49
2023/09/13 05:33:34;;;;;;;28.83;24.83;;;18.10;99.90;;;;;;5053949;28;20571;-52
2023/09/13 05:36:00;;;;;;;29.55;24.13;;;18.10;99.90;;;;;;5053911;28;20274;-50
2023/09/13 05:38:25;;;;;;;31.02;23.80;;;18.10;99.90;;;;;;5053848;28;20183;-52
2023/09/13 05:40:51;;;;;;;29.48;23.40;;;18.10;99.90;;;;;;5053646;28;20758;-51
2023/09/13 05:43:17;;;;;;;32.15;25.42;;;18.10;99.90;;;;;;5053928;28;20172;-49
2023/09/13 05:45:42;;;;;;;31.05;25.05;;;18.10;99.90;;;;;;5053927;28;20175;-49
2023/09/13 05:48:08;;;;;;;29.02;24.27;;;18.10;99.90;;;;;;5053665;28;20188;-49
2023/09/13 05:50:34;;;;;;;31.23;25.38;;;18.10;99.90;;;;;;5053726;28;20171;-50
2023/09/13 05:52:59;;;;;;;30.65;24.38;;;18.20;99.90;;;;;;5053638;28;20221;-49
2023/09/13 05:55:25;;;;;;;30.25;25.30;;;18.20;99.90;;;;;;5053439;28;20175;-51
2023/09/13 05:57:51;;;;;;;32.85;25.92;;;18.30;99.90;;;;;;5053752;28;20517;-47
2023/09/13 06:00:17;;;;;;;32.95;26.15;;;18.30;99.90;;;;;;5053470;28;20236;-49
2023/09/13 06:02:43;;;;;;;31.45;25.85;;;18.40;99.90;;;;;;5053624;28;20176;-50
2023/09/13 06:05:11;;;;;;;34.30;25.98;;;18.40;99.90;;;;;;5053511;28;20183;-48
2023/09/13 06:07:37;;;;;;;35.67;26.90;;;18.30;99.90;;;;;;5053468;28;20179;-51
2023/09/13 06:10:04;;;;;;;34.85;25.58;;;18.30;99.90;;;;;;5053309;28;20203;-50
2023/09/13 06:12:30;;;;;;;42.15;27.55;;;18.40;99.90;;;;;;5053231;28;20183;-47
2023/09/13 06:14:57;;;;;;;34.83;25.38;;;18.40;99.90;;;;;;5053715;28;20175;-49
2023/09/13 06:17:23;;;;;;;33.33;25.52;;;18.50;99.90;;;;;;5053400;28;20197;-50
2023/09/13 06:19:52;;;;;;;30.23;24.10;;;18.40;99.90;;;;;;5053329;28;20237;-49
2023/09/13 06:22:17;;;;;;;32.55;24.52;;;18.50;99.90;;;;;;5053079;28;20239;-51
2023/09/13 06:24:44;;;;;;;35.03;24.27;;;18.50;99.90;;;;;;5053228;28;20856;-51
2023/09/13 06:27:10;;;;;;;28.52;22.95;;;18.50;99.90;;;;;;5053502;28;20206;-51
2023/09/13 06:29:35;;;;;;;27.13;22.45;;;18.60;99.90;;;;;;5053388;28;20202;-52
2023/09/13 06:32:04;;;;;;;28.60;22.45;;;18.60;99.90;;;;;;5052858;28;20184;-47
2023/09/13 06:34:30;;;;;;;30.15;21.63;;;18.60;99.90;;;;;;5053118;28;20175;-47
2023/09/13 06:36:56;;;;;;;25.10;21.02;;;18.70;99.90;;;;;;5053086;28;20171;-51
2023/09/13 06:39:22;;;;;;;27.52;20.15;;;18.80;99.90;;;;;;5052907;28;20258;-52
2023/09/13 06:41:48;;;;;;;25.35;20.85;;;18.90;99.90;;;;;;5053259;28;20207;-50
2023/09/13 06:44:14;;;;;;;27.65;21.10;;;19.00;99.90;;;;;;5053282;28;20176;-47
2023/09/13 06:46:41;;;;;;;25.92;20.40;;;19.00;99.90;;;;;;5053092;28;20168;-51
2023/09/13 06:49:07;;;;;;;25.92;20.48;;;19.00;99.90;;;;;;5052912;28;20176;-46
2023/09/13 06:51:33;;;;;;;22.83;19.13;;;19.00;99.90;;;;;;5052984;28;20653;-52
2023/09/13 06:53:59;;;;;;;23.92;19.10;;;19.00;99.90;;;;;;5052809;28;20270;-51
2023/09/13 06:56:25;;;;;;;21.63;18.67;;;19.10;99.90;;;;;;5053072;28;20537;-49
2023/09/13 06:58:51;;;;;;;25.80;19.35;;;19.10;99.90;;;;;;5052996;28;20167;-46
2023/09/13 07:01:16;;;;;;;26.10;17.90;;;19.10;99.90;;;;;;5052807;28;20733;-51
2023/09/13 07:03:42;;;;;;;26.10;18.33;;;19.10;99.90;;;;;;5052799;28;20175;-50
2023/09/13 07:06:07;;;;;;;23.42;16.63;;;19.10;99.90;;;;;;5052727;28;20175;-49
2023/09/13 07:08:33;;;;;;;22.27;17.25;;;19.20;99.90;;;;;;5053001;28;20183;-47
2023/09/13 07:10:59;;;;;;;24.55;16.33;;;19.20;99.90;;;;;;5052906;28;20182;-48
2023/09/13 07:13:25;;;;;;;18.60;16.15;;;19.20;99.90;;;;;;5052760;28;20182;-48
2023/09/13 07:15:51;;;;;;;22.33;16.85;;;19.30;99.90;;;;;;5052665;28;20186;-51
2023/09/13 07:18:17;;;;;;;19.20;15.82;;;19.40;99.90;;;;;;5052866;28;20175;-49
2023/09/13 07:20:43;;;;;;;22.80;15.93;;;19.30;99.90;;;;;;5052332;28;20234;-52
2023/09/13 07:23:09;;;;;;;19.95;14.77;;;19.30;99.90;;;;;;5052623;28;20546;-46
2023/09/13 07:25:34;;;;;;;20.48;14.50;;;19.30;99.90;;;;;;5052727;28;20263;-49
2023/09/13 07:28:00;;;;;;;18.00;13.50;;;19.30;99.90;;;;;;5052706;28;20258;-49
2023/09/13 07:30:26;;;;;;;20.20;14.35;;;19.20;99.90;;;;;;5052681;28;20632;-50
2023/09/13 07:32:52;;;;;;;19.65;14.68;;;19.20;99.90;;;;;;5052472;28;20651;-46
2023/09/13 07:35:20;;;;;;;22.70;15.05;;;19.20;99.90;;;;;;5052857;28;20179;-50
2023/09/13 07:37:46;;;;;;;17.90;13.73;;;19.30;99.90;;;;;;5052514;28;20179;-51
2023/09/13 07:40:12;;;;;;;21.13;14.02;;;19.30;99.90;;;;;;5052639;28;20559;-49
2023/09/13 07:42:37;;;;;;;20.27;14.85;;;19.20;99.90;;;;;;5052660;28;20175;-47
2023/09/13 07:45:03;;;;;;;17.88;13.80;;;19.30;99.90;;;;;;5054402;28;20175;-48
2023/09/13 07:47:29;;;;;;;20.85;13.20;;;19.10;99.90;;;;;;5055906;28;20175;-47
2023/09/13 07:49:58;;;;;;;21.17;11.85;;;18.90;99.90;;;;;;5055915;28;20191;-49
2023/09/13 07:52:24;;;;;;;16.33;10.80;;;18.90;99.90;;;;;;5056270;28;20179;-48
2023/09/13 07:54:50;;;;;;;20.10;11.85;;;19.00;99.90;;;;;;5055792;28;20187;-50
2023/09/13 07:57:16;;;;;;;18.52;10.18;;;19.20;99.90;;;;;;5055912;28;20175;-48
2023/09/13 07:59:42;;;;;;;14.27;8.77;;;19.10;99.90;;;;;;5056068;28;20172;-48
2023/09/13 08:02:08;;;;;;;15.40;8.32;;;19.20;99.90;;;;;;5055563;28;20231;-51
2023/09/13 08:04:34;;;;;;;15.77;7.78;;;19.00;99.90;;;;;;5055536;28;20233;-48
2023/09/13 08:06:59;;;;;;;15.60;7.07;;;18.90;99.90;;;;;;5055820;28;20175;-48
2023/09/13 08:09:26;;;;;;;12.23;6.80;;;18.90;99.90;;;;;;5055731;28;20175;-47
2023/09/13 08:11:52;;;;;;;13.30;5.43;;;18.90;99.90;;;;;;5055565;28;20171;-47
2023/09/13 08:14:18;;;;;;;13.32;4.93;;;18.80;99.90;;;;;;5055302;28;20257;-47
2023/09/13 08:16:44;;;;;;;14.13;4.25;;;18.60;99.90;;;;;;5055242;28;20179;-46
2023/09/13 08:19:10;;;;;;;10.77;4.20;;;18.50;99.90;;;;;;5054906;28;20212;-48
2023/09/13 08:21:36;;;;;;;17.67;4.47;;;18.50;99.90;;;;;;5055392;28;20203;-46
2023/09/13 08:24:03;;;;;;;9.20;4.25;;;18.60;99.90;;;;;;5055240;28;20187;-52
2023/09/13 08:26:30;;;;;;;9.38;3.50;;;18.50;99.90;;;;;;5055420;28;20172;-47
2023/09/13 08:28:56;;;;;;;13.27;4.38;;;18.40;99.90;;;;;;5055267;28;20171;-50
2023/09/13 08:31:23;;;;;;;12.02;4.75;;;18.40;99.90;;;;;;5055159;28;20206;-51
2023/09/13 08:33:49;;;;;;;9.95;4.10;;;18.30;99.90;;;;;;5055049;28;20215;-49
2023/09/13 08:36:17;;;;;;;10.57;3.72;;;18.20;99.90;;;;;;5054994;28;20233;-49
2023/09/13 08:38:43;;;;;;;6.00;3.13;;;18.00;99.90;;;;;;5055179;28;20176;-47
2023/09/13 08:41:08;;;;;;;7.50;2.80;;;17.90;99.90;;;;;;5054979;28;20206;-49
2023/09/13 08:43:36;;;;;;;4.57;2.50;;;18.00;99.90;;;;;;5054886;28;20179;-49
2023/09/13 08:46:02;;;;;;;5.13;2.30;;;17.90;99.90;;;;;;5054890;28;20199;-47
2023/09/13 08:48:28;;;;;;;5.40;2.20;;;18.00;99.90;;;;;;5054742;28;20176;-49
2023/09/13 08:50:54;;;;;;;7.57;2.78;;;18.20;99.90;;;;;;5054776;28;20647;-51
2023/09/13 08:53:22;;;;;;;3.85;2.95;;;18.20;99.90;;;;;;5054618;28;20183;-48
2023/09/13 08:55:50;;;;;;;6.30;3.20;;;18.00;99.90;;;;;;5054569;28;20180;-48
2023/09/13 08:58:16;;;;;;;4.65;3.35;;;17.80;99.90;;;;;;5054657;28;20198;-48
2023/09/13 09:00:45;;;;;;;5.43;3.17;;;17.70;99.90;;;;;;5054447;28;20211;-52
2023/09/13 09:03:13;;;;;;;5.25;3.00;;;17.70;99.90;;;;;;5054367;28;20564;-51
2023/09/13 09:05:40;;;;;;;6.10;3.63;;;17.60;99.90;;;;;;5054656;28;20183;-50
2023/09/13 09:08:06;;;;;;;4.97;3.20;;;17.50;99.90;;;;;;5054574;28;20186;-52
2023/09/13 09:10:32;;;;;;;6.30;3.22;;;17.60;99.90;;;;;;5054470;28;20180;-51
2023/09/13 09:13:00;;;;;;;5.97;3.58;;;17.70;99.90;;;;;;5054316;28;20187;-52
2023/09/13 09:15:27;;;;;;;6.43;3.40;;;17.50;99.90;;;;;;5054269;28;20171;-50
2023/09/13 09:17:55;;;;;;;4.57;3.25;;;17.50;99.90;;;;;;5054126;28;20183;-50
2023/09/13 09:20:28;;;;;;;4.70;3.10;;;17.50;99.90;;;;;;5053982;28;20238;-50
2023/09/13 09:22:57;;;;;;;5.15;3.35;;;17.50;99.90;;;;;;5054274;28;20221;-51
2023/09/13 09:25:25;;;;;;;6.63;3.10;;;17.50;99.90;;;;;;5054039;28;20163;-48
2023/09/13 09:27:51;;;;;;;6.45;3.13;;;17.60;99.90;;;;;;5054067;28;20167;-52
2023/09/13 09:30:27;;;;;;;5.88;2.88;;;17.70;99.90;;;;;;5053913;28;20663;-50
2023/09/13 09:33:03;;;;;;;3.70;3.05;;;17.80;99.90;;;;;;5054063;28;20171;-52
2023/09/13 09:35:29;;;;;;;5.15;3.38;;;17.80;99.90;;;;;;5053954;28;20646;-49
2023/09/13 09:37:55;;;;;;;6.05;3.30;;;18.00;99.90;;;;;;5053914;28;20175;-51
2023/09/13 09:40:20;;;;;;;6.85;3.90;;;18.00;99.90;;;;;;5053711;28;20178;-50
2023/09/13 09:42:54;;;;;;;4.78;3.38;;;17.90;99.90;;;;;;5053739;28;20178;-51
2023/09/13 09:45:23;;;;;;;6.80;3.90;;;18.10;99.90;;;;;;5053963;28;20178;-46
2023/09/13 09:47:53;;;;;;;6.03;3.67;;;18.40;99.90;;;;;;5053614;28;20175;-48
2023/09/13 09:50:19;;;;;;;6.05;3.65;;;18.70;99.90;;;;;;5053758;28;20171;-47
2023/09/13 09:52:49;;;;;;;4.68;3.58;;;19.00;99.90;;;;;;5053910;28;20182;-46
2023/09/13 09:55:16;;;;;;;6.03;3.60;;;19.30;99.90;;;;;;5053456;28;20175;-47
2023/09/13 09:57:46;;;;;;;4.43;3.35;;;19.30;99.90;;;;;;5053735;28;20179;-47
2023/09/13 10:00:13;;;;;;;3.80;3.17;;;19.10;99.90;;;;;;5053663;28;20168;-46
2023/09/13 10:02:39;;;;;;;4.45;2.70;;;18.90;99.90;;;;;;5053449;28;20191;-48
2023/09/13 10:05:05;;;;;;;3.90;2.72;;;18.80;99.90;;;;;;5053419;28;20220;-45
2023/09/13 10:07:40;;;;;;;2.50;2.00;;;19.10;99.90;;;;;;5052857;28;20179;-46
2023/09/13 10:10:09;;;;;;;3.88;2.47;;;19.30;99.90;;;;;;5053268;28;20658;-50
2023/09/13 10:12:50;;;;;;;2.35;1.90;;;19.50;99.90;;;;;;5053406;28;20662;-50
2023/09/13 10:15:18;;;;;;;2.55;1.92;;;19.60;99.90;;;;;;5053340;28;20183;-48
2023/09/13 10:17:46;;;;;;;2.53;1.80;;;19.40;99.90;;;;;;5053220;28;20264;-46
2023/09/13 10:20:15;;;;;;;2.35;1.73;;;19.50;99.90;;;;;;5053070;28;20703;-49
2023/09/13 10:22:42;;;;;;;2.83;1.67;;;19.50;99.90;;;;;;5053134;28;20236;-49
2023/09/13 10:25:11;;;;;;;3.13;1.13;;;19.40;99.90;;;;;;5053329;28;20179;-49
2023/09/13 10:27:39;;;;;;;2.60;1.10;;;19.20;99.90;;;;;;5053087;28;20167;-47
2023/09/13 10:30:08;;;;;;;2.55;1.05;;;19.00;99.90;;;;;;5053134;28;20186;-47
2023/09/13 10:32:45;;;;;;;1.23;0.90;;;18.80;99.90;;;;;;5052978;28;20205;-49
2023/09/13 10:35:11;;;;;;;1.58;0.95;;;18.80;99.90;;;;;;5053270;28;20159;-48
2023/09/13 10:37:55;;;;;;;1.30;0.82;;;19.10;99.90;;;;;;5053191;28;20179;-47
2023/09/13 10:41:02;;;;;;;1.20;0.80;;;19.30;99.90;;;;;;5053084;28;20167;-49
2023/09/13 10:43:29;;;;;;;0.85;0.85;;;19.50;99.90;;;;;;5046710;28;20187;-50
2023/09/13 10:45:55;;;;;;;1.25;0.80;;;19.80;99.90;;;;;;5053063;28;20744;-48
2023/09/13 10:48:22;;;;;;;2.95;0.90;;;19.80;99.90;;;;;;5053050;28;20172;-48
2023/09/13 10:50:49;;;;;;;0.85;0.70;;;20.00;99.90;;;;;;5052950;28;20194;-46
2023/09/13 10:53:16;;;;;;;1.45;0.90;;;20.00;99.90;;;;;;5052904;28;20246;-48
2023/09/13 10:55:42;;;;;;;1.25;0.80;;;20.10;99.90;;;;;;5052851;28;20178;-46
2023/09/13 10:58:09;;;;;;;2.70;0.73;;;20.30;99.90;;;;;;5053021;28;20171;-50
2023/09/13 11:00:38;;;;;;;1.98;0.80;;;20.50;99.90;;;;;;5052836;28;20221;-46
2023/09/13 11:03:05;;;;;;;1.30;0.77;;;20.50;99.90;;;;;;5052793;28;20183;-46
2023/09/13 11:05:33;;;;;;;1.08;0.73;;;20.80;99.90;;;;;;5052836;28;20175;-47
2023/09/13 11:07:59;;;;;;;0.93;0.50;;;21.00;99.90;;;;;;5052711;28;20172;-46
2023/09/13 11:10:31;;;;;;;1.83;0.52;;;21.00;99.90;;;;;;5052660;28;20190;-48
2023/09/13 11:13:11;;;;;;;1.48;0.85;;;21.10;99.90;;;;;;5052885;28;20183;-46
2023/09/13 11:15:48;;;;;;;1.10;0.70;;;21.10;99.90;;;;;;5052865;28;20171;-46
2023/09/13 11:18:14;;;;;;;1.77;0.80;;;21.30;99.90;;;;;;5052733;28;20255;-50
2023/09/13 11:20:42;;;;;;;2.72;0.70;;;21.20;99.90;;;;;;5055203;28;20289;-46
2023/09/13 11:23:18;;;;;;;1.65;0.60;;;21.30;99.90;;;;;;5056628;28;20274;-46
2023/09/13 11:26:04;;;;;;;1.75;0.80;;;21.40;99.90;;;;;;5056544;28;20644;-49
2023/09/13 11:28:36;;;;;;;2.08;0.70;;;21.30;99.90;;;;;;5056545;28;20183;-50
2023/09/13 11:31:02;;;;;;;1.45;0.73;;;21.30;99.90;;;;;;5056634;28;20179;-50
2023/09/13 11:33:37;;;;;;;2.55;0.50;;;21.50;99.90;;;;;;5056127;28;20191;-49
2023/09/13 11:36:03;;;;;;;2.25;0.70;;;21.50;99.90;;;;;;5056436;28;20166;-50
2023/09/13 11:38:30;;;;;;;2.47;0.60;;;21.50;99.90;;;;;;5056022;28;20528;-47
2023/09/13 11:40:57;;;;;;;1.27;0.77;;;21.70;99.90;;;;;;5056153;28;20230;-50
2023/09/13 11:43:28;;;;;;;1.88;1.10;;;21.60;99.90;;;;;;5054924;28;20547;-46
2023/09/13 11:45:58;;;;;;;2.88;1.08;;;21.10;99.90;;;;;;5055892;28;20232;-50
2023/09/13 11:48:32;;;;;;;2.60;0.85;;;21.00;99.90;;;;;;5056126;28;20268;-51
2023/09/13 11:51:12;;;;;;;2.13;1.00;;;20.50;99.90;;;;;;5055988;28;20261;-47
2023/09/13 11:53:39;;;;;;;3.22;1.02;;;20.30;99.90;;;;;;5055907;28;20178;-46
2023/09/13 11:56:04;;;;;;;1.95;0.90;;;20.40;99.90;;;;;;5055798;28;20244;-52
2023/09/13 11:58:37;;;;;;;1.27;0.80;;;20.60;99.90;;;;;;5055809;28;20210;-46
2023/09/13 12:01:07;;;;;;;3.40;1.05;;;20.70;99.90;;;;;;5055939;28;20203;-50
2023/09/13 12:03:41;;;;;;;1.83;0.90;;;20.80;99.90;;;;;;5056110;28;20163;-49
2023/09/13 12:06:08;;;;;;;0.88;0.77;;;20.90;99.90;;;;;;5055725;28;20533;-48
2023/09/13 12:08:37;;;;;;;2.90;0.90;;;21.20;99.90;;;;;;5055488;28;20265;-50
2023/09/13 12:11:10;;;;;;;1.10;0.80;;;21.00;99.90;;;;;;5055440;28;20183;-51
2023/09/13 12:13:50;;;;;;;1.80;0.80;;;20.90;99.90;;;;;;5055644;28;20637;-46
2023/09/13 12:16:17;;;;;;;2.38;0.73;;;20.70;99.90;;;;;;5055522;28;20210;-50
2023/09/13 12:18:43;;;;;;;1.20;0.70;;;20.70;99.90;;;;;;5055353;28;20176;-47
2023/09/13 12:21:11;;;;;;;0.90;0.73;;;20.70;99.90;;;;;;5055110;28;20765;-50
2023/09/13 12:23:38;;;;;;;1.85;0.93;;;21.00;99.90;;;;;;5055389;28;20552;-46
2023/09/13 12:26:09;;;;;;;0.90;0.80;;;21.40;99.90;;;;;;5055363;28;20171;-48
2023/09/13 12:28:37;;;;;;;2.00;1.08;;;21.60;99.90;;;;;;5055653;28;20190;-46
2023/09/13 12:31:07;;;;;;;1.95;1.00;;;21.40;99.90;;;;;;5054778;28;20210;-46
2023/09/13 12:33:34;;;;;;;1.20;1.10;;;21.20;99.90;;;;;;5055103;28;20183;-49
2023/09/13 12:36:02;;;;;;;2.15;0.90;;;21.00;99.90;;;;;;5054960;28;20176;-51